Meteo Giornale » Osservazioni meteo Italia » Cervia

ore: 21:55 - Osservazioni Meteo Cervia
Lat. 44° 13' N Lon. 12° 18' E Alt. 6 metri s.l.m.

sereno Europe/Rome

26 °C

Sereno

Temp. 24 Ore

20 °C

31 °C

Nord

5.5 Km/h

Dew point 24 °C

Umidità 88 %

Visibilità  10 Km

Il sole sorge alle ore 06:12

Il sole tramonta alle ore 20:18

Data e Ora Cielo e Fenomeni T °C DP °C Um. % Pres. hPa Vis. km Vento km/h
Oggi h: 21:55 sereno Sereno 26 24 88 1012 10 N 5.5
Oggi h: 20:55 sereno Sereno 25 23 88 1011 10 E 11.1
Oggi h: 19:55 poco_nuvoloso Poco Nuvoloso 26 23 83 1011 10 E/NE 18.5
Oggi h: 17:55 poco_nuvoloso Poco Nuvoloso 30 21 58 1010 10 E 16.7
Oggi h: 16:55 sereno Sereno 31 21 55 1010 10 E 16.7
Oggi h: 15:55 sereno Sereno 31 23 62 1010 10 E/NE 18.5
Oggi h: 14:55 sereno Sereno 31 22 58 1010 10 E/NE 18.5
Oggi h: 13:55 sereno Sereno 31 22 58 1011 10 E 16.7
Oggi h: 12:55 sereno Sereno 31 20 52 1011 10 E/NE 18.5
Oggi h: 11:55 sereno Sereno 31 16 40 1012 10 N 5.5
Oggi h: 10:55 sereno Sereno 30 18 48 1012 10 O/NO 9.3
Oggi h: 09:55 sereno Sereno 28 19 58 1012 10 O/NO 9.3
Oggi h: 08:55 poco_nuvoloso Poco Nuvoloso 26 19 65 1012 10 O/NO 7.4
Oggi h: 07:55 poco_nuvoloso Poco Nuvoloso 23 19 78 1012 10 O 7.4
Oggi h: 06:55 sereno Sereno 20 18 88 1012 10 N 5.5
Oggi h: 05:55 sereno Sereno 20 17 82 1012 10 S/SO 9.3
Oggi h: 04:55 sereno Sereno 21 18 82 1012 10 N 5.5
Oggi h: 03:55 sereno Sereno 22 18 78 1012 10 N 5.5
Oggi h: 02:55 sereno Sereno 22 18 78 1012 10 S/SO 11.1
Oggi h: 01:55 sereno Sereno 24 22 88 1012 10 SO 14.8
Oggi h: 00:55 sereno Sereno 23 21 88 1012 10 N 5.5
Ieri h: 23:55 sereno Sereno 24 21 83 1013 10 O 11.1
Ieri h: 22:55 sereno Sereno 24 20 78 1013 10 N 3.7